Time;durP1;ratioP1;P1;durP2;ratioP2;P2;SDS_P1;SDS_P2;PMS_P1;PMS_P2;Temp;Humidity;BMP_temperature;BMP_pressure;BME280_temperature;BME280_humidity;BME280_pressure;Samples;Min_cycle;Max_cycle;Signal;HPM_P1;HPM_P2
2022/07/02 00:01:28;;;;;;;6.03;2.78;;;16.10;94.00;;;;;;5033693;28;20060;-75
2022/07/02 00:03:57;;;;;;;6.78;3.35;;;16.10;94.10;;;;;;5015799;28;20037;-75
2022/07/02 00:06:28;;;;;;;6.18;3.10;;;16.10;94.30;;;;;;5032242;28;20058;-75
2022/07/02 00:08:54;;;;;;;7.00;3.05;;;16.10;94.40;;;;;;5032190;28;20024;-75
2022/07/02 00:11:20;;;;;;;5.45;3.15;;;16.00;94.50;;;;;;5032471;28;20035;-75
2022/07/02 00:13:48;;;;;;;5.03;3.13;;;16.00;94.60;;;;;;5032397;28;20025;-74
2022/07/02 00:16:14;;;;;;;6.03;3.35;;;16.00;94.80;;;;;;5032451;28;20026;-75
2022/07/02 00:18:40;;;;;;;7.22;3.13;;;16.00;94.80;;;;;;5015858;28;20116;-75
2022/07/02 00:21:06;;;;;;;7.97;3.90;;;15.90;94.90;;;;;;5032306;28;20025;-75
2022/07/02 00:23:32;;;;;;;7.65;3.30;;;16.00;94.90;;;;;;5032201;28;20426;-75
2022/07/02 00:26:07;;;;;;;14.55;3.70;;;15.90;94.90;;;;;;5033718;28;20065;-75
2022/07/02 00:28:36;;;;;;;6.38;3.25;;;15.90;94.90;;;;;;5033806;28;20021;-75
2022/07/02 00:31:02;;;;;;;8.55;3.67;;;15.90;94.90;;;;;;5033587;28;20083;-74
2022/07/02 00:33:33;;;;;;;9.52;3.55;;;15.90;94.90;;;;;;5032618;28;20120;-75
2022/07/02 00:35:59;;;;;;;8.13;4.10;;;15.90;94.90;;;;;;5033173;28;20021;-75
2022/07/02 00:38:25;;;;;;;7.07;3.30;;;15.80;94.90;;;;;;5032392;28;20136;-75
2022/07/02 00:40:51;;;;;;;7.72;3.80;;;15.80;95.00;;;;;;5033235;28;20116;-74
2022/07/02 00:43:18;;;;;;;7.13;3.33;;;15.80;95.00;;;;;;5032286;28;20025;-75
2022/07/02 00:45:44;;;;;;;8.10;3.33;;;15.80;95.10;;;;;;5015804;28;20030;-75
2022/07/02 00:48:11;;;;;;;5.65;3.50;;;15.70;95.10;;;;;;5033559;28;20343;-75
2022/07/02 00:50:37;;;;;;;6.53;3.28;;;15.70;95.10;;;;;;5033234;28;20572;-75
2022/07/02 00:53:03;;;;;;;7.60;3.42;;;15.70;95.10;;;;;;5032084;28;20025;-75
2022/07/02 00:55:28;;;;;;;7.13;3.13;;;15.60;95.10;;;;;;5033332;28;20125;-74
2022/07/02 00:57:54;;;;;;;7.60;3.50;;;15.60;95.00;;;;;;5033411;28;20028;-74
2022/07/02 01:00:20;;;;;;;4.70;2.83;;;15.60;95.10;;;;;;5033553;28;20032;-74
2022/07/02 01:02:48;;;;;;;7.43;3.15;;;15.60;95.10;;;;;;5032371;28;20025;-75
2022/07/02 01:05:15;;;;;;;6.75;3.58;;;15.60;95.20;;;;;;5032041;28;20108;-74
2022/07/02 01:10:16;;;;;;;5.28;2.97;;;15.60;95.20;;;;;;5032165;28;20029;-75
2022/07/02 01:10:44;;;;;;;7.07;3.40;;;15.50;95.50;;;;;;5033055;28;20390;-74
2022/07/02 01:13:11;;;;;;;7.20;3.47;;;15.50;95.20;;;;;;5033083;28;20348;-74
2022/07/02 01:15:38;;;;;;;5.97;3.17;;;15.50;95.20;;;;;;5031945;28;20060;-75
2022/07/02 01:18:04;;;;;;;7.32;3.42;;;15.40;95.10;;;;;;5031995;28;20041;-75
2022/07/02 01:20:30;;;;;;;6.72;3.03;;;15.50;95.10;;;;;;5033211;28;20389;-75
2022/07/02 01:22:55;;;;;;;5.93;3.13;;;15.40;95.20;;;;;;5031931;28;20025;-76
2022/07/02 01:25:22;;;;;;;8.25;3.38;;;15.40;95.20;;;;;;5033008;28;20036;-74
2022/07/02 01:27:48;;;;;;;4.82;3.17;;;15.40;95.20;;;;;;5031978;28;20025;-74
2022/07/02 01:30:14;;;;;;;5.78;3.25;;;15.40;95.30;;;;;;5031838;28;20053;-74
2022/07/02 01:32:39;;;;;;;4.88;2.70;;;15.30;95.30;;;;;;5031688;28;20057;-74
2022/07/02 01:35:08;;;;;;;5.50;2.80;;;15.30;95.40;;;;;;5031399;28;20122;-74
2022/07/02 01:37:37;;;;;;;8.68;2.90;;;15.30;95.50;;;;;;5031499;28;20071;-74
2022/07/02 01:40:03;;;;;;;5.90;3.53;;;15.20;95.60;;;;;;5015297;28;20040;-75
2022/07/02 01:42:29;;;;;;;5.75;3.35;;;15.20;95.70;;;;;;5015339;28;20034;-74
2022/07/02 01:44:55;;;;;;;7.07;3.38;;;15.30;95.80;;;;;;5031380;28;20036;-75
2022/07/02 01:47:21;;;;;;;5.90;3.38;;;15.10;95.90;;;;;;5033786;28;20030;-75
2022/07/02 01:49:47;;;;;;;7.80;3.47;;;15.10;96.00;;;;;;5035236;28;20048;-75
2022/07/02 01:52:15;;;;;;;6.40;3.40;;;15.10;96.00;;;;;;5036556;28;20466;-75
2022/07/02 01:54:40;;;;;;;6.55;3.10;;;15.10;96.10;;;;;;5035009;28;20032;-75
2022/07/02 01:57:06;;;;;;;8.85;4.05;;;15.00;96.20;;;;;;5035748;28;20029;-74
2022/07/02 01:59:32;;;;;;;5.13;3.38;;;15.00;96.30;;;;;;5035745;28;20091;-74
2022/07/02 02:01:58;;;;;;;7.45;3.28;;;15.00;96.30;;;;;;5034895;28;20030;-75
2022/07/02 02:04:24;;;;;;;6.30;3.88;;;15.00;96.40;;;;;;5051461;28;20036;-74
2022/07/02 02:06:49;;;;;;;8.63;3.78;;;14.90;96.40;;;;;;5034794;28;20108;-74
2022/07/02 02:09:15;;;;;;;7.65;3.67;;;14.90;96.50;;;;;;5017940;28;20023;-74
2022/07/02 02:11:41;;;;;;;6.47;3.72;;;14.90;96.50;;;;;;5034990;28;20492;-74
2022/07/02 02:14:06;;;;;;;8.85;3.95;;;14.90;96.60;;;;;;5035832;28;20051;-74
2022/07/02 02:16:32;;;;;;;5.50;4.00;;;14.80;96.60;;;;;;5034598;28;20031;-75
2022/07/02 02:18:59;;;;;;;7.05;3.85;;;14.80;96.70;;;;;;5034431;28;20412;-74
2022/07/02 02:21:26;;;;;;;7.78;3.97;;;14.80;96.80;;;;;;5034660;28;20473;-74
2022/07/02 02:23:51;;;;;;;7.03;3.90;;;14.70;96.80;;;;;;5034209;28;20081;-75
2022/07/02 02:26:17;;;;;;;6.20;3.95;;;14.70;96.90;;;;;;5034509;28;20095;-75
2022/07/02 02:28:43;;;;;;;8.75;3.92;;;14.70;97.00;;;;;;5035778;28;20017;-74
2022/07/02 02:31:09;;;;;;;8.52;3.80;;;14.70;97.10;;;;;;5034192;28;20120;-74
2022/07/02 02:33:35;;;;;;;7.15;4.28;;;14.70;97.10;;;;;;5035673;28;20026;-74
2022/07/02 02:36:00;;;;;;;7.95;4.32;;;14.70;97.10;;;;;;5035503;28;20047;-75
2022/07/02 02:38:26;;;;;;;7.88;3.55;;;14.60;97.10;;;;;;5017764;28;20025;-74
2022/07/02 02:40:52;;;;;;;7.95;4.32;;;14.60;97.20;;;;;;5033798;28;20099;-74
2022/07/02 02:43:17;;;;;;;9.82;4.30;;;14.60;97.20;;;;;;5030854;28;20033;-75
2022/07/02 02:45:43;;;;;;;6.97;4.15;;;14.60;97.20;;;;;;5033751;28;20022;-75
2022/07/02 02:48:08;;;;;;;7.15;4.28;;;14.50;97.20;;;;;;4997179;28;20125;-75
2022/07/02 02:50:34;;;;;;;7.57;4.28;;;14.50;97.30;;;;;;5034009;28;20026;-75
2022/07/02 02:53:00;;;;;;;10.93;4.15;;;14.50;97.30;;;;;;5034977;28;20030;-75
2022/07/02 02:55:25;;;;;;;7.18;4.25;;;14.50;97.40;;;;;;5035095;28;20482;-75
2022/07/02 02:57:52;;;;;;;6.50;3.72;;;14.50;97.40;;;;;;5034650;28;20090;-75
2022/07/02 03:00:17;;;;;;;9.43;4.20;;;14.40;97.50;;;;;;5013789;28;20045;-74
2022/07/02 03:02:43;;;;;;;8.30;4.38;;;14.40;97.50;;;;;;5034730;28;20026;-75
2022/07/02 03:05:09;;;;;;;7.35;4.57;;;14.40;97.60;;;;;;5032987;28;20033;-74
2022/07/02 03:07:34;;;;;;;7.22;4.38;;;14.40;97.60;;;;;;5033374;28;20033;-75
2022/07/02 03:10:00;;;;;;;6.90;4.43;;;14.30;97.60;;;;;;5033388;28;20021;-75
2022/07/02 03:12:26;;;;;;;9.50;5.07;;;14.30;97.60;;;;;;5033191;28;20025;-75
2022/07/02 03:14:52;;;;;;;7.20;3.85;;;14.30;97.70;;;;;;5016915;28;20100;-75
2022/07/02 03:17:17;;;;;;;7.68;4.28;;;14.30;97.70;;;;;;5016727;28;20040;-75
2022/07/02 03:19:44;;;;;;;8.60;4.80;;;14.20;97.70;;;;;;5034231;28;20026;-74
2022/07/02 03:22:09;;;;;;;8.38;4.15;;;14.30;97.80;;;;;;5015154;28;20057;-75
2022/07/02 03:24:35;;;;;;;8.02;4.63;;;14.20;97.80;;;;;;5034361;28;20100;-75
2022/07/02 03:27:00;;;;;;;7.07;4.40;;;14.20;97.80;;;;;;5032569;28;20537;-74
2022/07/02 03:29:26;;;;;;;7.85;5.15;;;14.20;98.20;;;;;;5016616;28;20385;-75
2022/07/02 03:31:52;;;;;;;8.13;4.38;;;14.20;98.00;;;;;;5034557;28;20486;-74
2022/07/02 03:34:17;;;;;;;7.25;4.22;;;14.20;98.10;;;;;;5033559;28;20041;-75
2022/07/02 03:36:43;;;;;;;7.78;4.70;;;14.20;98.30;;;;;;5034412;28;20476;-74
2022/07/02 03:39:08;;;;;;;7.35;4.93;;;14.30;98.50;;;;;;5016753;28;20079;-75
2022/07/02 03:41:34;;;;;;;7.65;4.57;;;14.30;98.60;;;;;;5016378;28;20079;-75
2022/07/02 03:44:00;;;;;;;7.85;3.90;;;14.30;98.70;;;;;;5033117;28;20033;-75
2022/07/02 03:46:26;;;;;;;7.60;4.15;;;14.40;98.80;;;;;;5034231;28;20028;-75
2022/07/02 03:48:51;;;;;;;6.40;4.20;;;14.40;98.80;;;;;;5033063;28;20056;-75
2022/07/02 03:51:17;;;;;;;13.38;4.50;;;14.40;98.80;;;;;;5033410;28;20021;-75
2022/07/02 03:53:43;;;;;;;7.88;3.97;;;14.40;98.80;;;;;;5032992;28;20032;-74
2022/07/02 03:56:08;;;;;;;9.20;3.85;;;14.40;98.70;;;;;;5032795;28;20108;-75
2022/07/02 03:58:34;;;;;;;7.10;3.75;;;14.40;98.70;;;;;;5016491;28;20060;-75
2022/07/02 04:00:59;;;;;;;7.20;3.97;;;14.40;98.70;;;;;;5034008;28;20034;-75
2022/07/02 04:03:25;;;;;;;8.95;4.15;;;14.40;98.70;;;;;;5033931;28;20103;-76
2022/07/02 04:05:51;;;;;;;10.18;4.57;;;14.50;98.60;;;;;;5016155;28;20091;-75
2022/07/02 04:08:17;;;;;;;11.90;4.80;;;14.50;98.60;;;;;;5032611;28;20116;-75
2022/07/02 04:10:42;;;;;;;7.70;4.22;;;14.50;98.80;;;;;;5032995;28;20117;-75
2022/07/02 04:13:10;;;;;;;9.70;4.40;;;14.50;98.70;;;;;;5032317;28;20036;-75
2022/07/02 04:15:36;;;;;;;7.43;4.10;;;14.50;98.40;;;;;;5033447;28;20371;-75
2022/07/02 04:18:02;;;;;;;7.68;4.35;;;14.50;98.40;;;;;;5032105;28;20079;-75
2022/07/02 04:20:28;;;;;;;10.20;4.70;;;14.50;98.40;;;;;;5032524;28;20031;-75
2022/07/02 04:22:53;;;;;;;10.10;4.53;;;14.50;98.40;;;;;;5032109;28;20385;-75
2022/07/02 04:25:19;;;;;;;8.48;4.35;;;14.50;98.30;;;;;;5033264;28;20374;-75
2022/07/02 04:27:44;;;;;;;8.05;4.10;;;14.50;98.30;;;;;;5032035;28;20359;-75
2022/07/02 04:30:11;;;;;;;7.85;4.13;;;14.60;98.30;;;;;;5032434;28;20022;-74
2022/07/02 04:32:36;;;;;;;11.65;4.88;;;14.60;98.30;;;;;;5032297;28;20075;-75
2022/07/02 04:35:02;;;;;;;8.07;4.00;;;14.60;98.30;;;;;;5033619;28;20494;-75
2022/07/02 04:37:28;;;;;;;10.38;4.70;;;14.60;98.30;;;;;;5032273;28;20486;-75
2022/07/02 04:39:53;;;;;;;7.65;3.58;;;14.70;98.30;;;;;;5032208;28;20029;-74
2022/07/02 04:42:19;;;;;;;11.45;4.10;;;14.80;98.30;;;;;;5015792;28;20037;-75
2022/07/02 04:44:45;;;;;;;6.90;3.70;;;14.80;98.20;;;;;;5032574;28;20036;-75
2022/07/02 04:47:10;;;;;;;12.77;3.50;;;14.90;98.10;;;;;;5015655;28;20022;-75
2022/07/02 04:49:36;;;;;;;7.43;2.83;;;15.00;98.00;;;;;;5015538;28;20366;-75
2022/07/02 04:52:02;;;;;;;6.55;3.63;;;15.00;97.80;;;;;;5031894;28;20512;-75
2022/07/02 04:54:28;;;;;;;6.90;3.08;;;15.10;97.70;;;;;;5032904;28;20130;-74
2022/07/02 04:56:53;;;;;;;6.28;2.90;;;15.00;97.50;;;;;;5015178;28;20535;-74
2022/07/02 04:59:19;;;;;;;6.40;2.50;;;15.10;97.40;;;;;;5032769;28;20101;-74
2022/07/02 05:01:45;;;;;;;8.15;2.60;;;15.10;97.30;;;;;;5015057;28;20036;-75
2022/07/02 05:04:11;;;;;;;8.82;2.63;;;15.20;97.10;;;;;;5032750;28;20105;-75
2022/07/02 05:06:36;;;;;;;6.15;2.70;;;15.20;97.00;;;;;;5032856;28;20028;-74
2022/07/02 05:09:03;;;;;;;7.18;3.10;;;15.20;96.90;;;;;;5031436;28;20116;-75
2022/07/02 05:11:29;;;;;;;6.70;3.00;;;15.20;96.90;;;;;;5031510;28;20025;-75
2022/07/02 05:13:54;;;;;;;6.22;3.03;;;15.30;96.80;;;;;;5032923;28;20037;-75
2022/07/02 05:16:20;;;;;;;5.40;2.53;;;15.40;96.70;;;;;;5030275;28;20552;-74
2022/07/02 05:18:46;;;;;;;5.07;2.50;;;15.50;96.70;;;;;;5013027;28;20071;-74
2022/07/02 05:21:11;;;;;;;6.28;2.65;;;15.50;96.90;;;;;;5021464;28;20021;-75
2022/07/02 05:23:37;;;;;;;4.82;2.10;;;15.60;96.50;;;;;;5022089;28;20173;-74
2022/07/02 05:26:03;;;;;;;6.07;2.13;;;15.70;96.40;;;;;;5020434;28;20030;-74
2022/07/02 05:28:29;;;;;;;6.28;2.20;;;15.70;96.20;;;;;;5030658;28;20021;-74
2022/07/02 05:30:54;;;;;;;10.82;2.17;;;15.80;96.00;;;;;;5050771;28;20411;-75
2022/07/02 05:33:20;;;;;;;5.35;2.08;;;15.90;95.90;;;;;;5034640;28;20029;-75
2022/07/02 05:35:46;;;;;;;5.35;2.28;;;15.90;95.80;;;;;;5018475;28;20030;-75
2022/07/02 05:38:12;;;;;;;4.78;2.13;;;16.00;95.90;;;;;;5036080;28;20347;-74
2022/07/02 05:40:38;;;;;;;7.20;2.45;;;16.10;95.40;;;;;;5034686;28;20168;-75
2022/07/02 05:43:03;;;;;;;6.38;2.35;;;16.20;95.20;;;;;;5018294;28;20033;-75
2022/07/02 05:45:29;;;;;;;5.53;1.98;;;16.20;94.90;;;;;;5018346;28;20465;-75
2022/07/02 05:47:55;;;;;;;4.38;2.03;;;16.30;94.70;;;;;;5034944;28;20021;-74
2022/07/02 05:50:21;;;;;;;5.85;1.58;;;16.30;94.60;;;;;;5034779;28;20491;-75
2022/07/02 05:52:47;;;;;;;8.73;2.05;;;16.40;94.80;;;;;;5051258;28;20064;-75
2022/07/02 05:55:14;;;;;;;5.63;1.58;;;16.40;94.30;;;;;;5034637;28;20040;-75
2022/07/02 05:57:39;;;;;;;5.05;1.73;;;16.40;94.10;;;;;;5034520;28;20026;-75
2022/07/02 06:00:07;;;;;;;3.22;1.40;;;16.50;94.10;;;;;;5034781;28;20030;-75
2022/07/02 06:02:33;;;;;;;8.25;1.67;;;16.50;94.10;;;;;;5033307;28;20026;-75
2022/07/02 06:04:58;;;;;;;4.95;1.30;;;16.60;93.90;;;;;;5032534;28;20040;-75
2022/07/02 06:07:39;;;;;;;3.40;1.23;;;16.60;93.60;;;;;;5017339;28;20130;-75
2022/07/02 06:10:06;;;;;;;7.15;1.60;;;16.80;93.60;;;;;;5017411;28;20030;-75
2022/07/02 06:12:32;;;;;;;5.15;1.40;;;16.80;93.40;;;;;;5017946;28;20120;-74
2022/07/02 06:14:58;;;;;;;5.97;1.50;;;16.80;93.30;;;;;;5034302;28;20071;-75
2022/07/02 06:17:24;;;;;;;3.38;1.35;;;16.90;93.20;;;;;;5035393;28;20037;-74
2022/07/02 06:19:50;;;;;;;3.08;1.10;;;16.90;93.10;;;;;;5032788;28;20484;-75
2022/07/02 06:22:16;;;;;;;3.85;1.17;;;16.90;92.80;;;;;;5035290;28;20025;-75
2022/07/02 06:24:42;;;;;;;4.00;1.20;;;17.00;92.70;;;;;;5033976;28;20389;-76
2022/07/02 06:27:07;;;;;;;4.68;1.10;;;17.10;92.60;;;;;;5012195;28;20239;-76
2022/07/02 06:29:33;;;;;;;3.67;0.85;;;17.10;92.40;;;;;;5018752;28;20018;-76
2022/07/02 06:31:59;;;;;;;2.65;0.68;;;17.10;92.10;;;;;;4997854;28;20026;-76
2022/07/02 06:34:25;;;;;;;3.67;0.80;;;17.20;92.00;;;;;;5013582;28;20372;-75
2022/07/02 06:36:50;;;;;;;4.63;0.90;;;17.30;91.90;;;;;;5015236;28;20034;-76
2022/07/02 06:39:16;;;;;;;3.28;0.90;;;17.40;91.80;;;;;;5013968;28;20036;-76
2022/07/02 06:44:25;;;;;;;2.63;0.70;;;17.50;91.10;;;;;;5023862;28;20552;-76
2022/07/02 06:46:51;;;;;;;3.30;0.52;;;17.60;90.90;;;;;;5017033;28;20038;-75
2022/07/02 06:49:18;;;;;;;3.15;0.80;;;17.60;90.60;;;;;;5033685;28;20113;-75
2022/07/02 06:51:44;;;;;;;1.67;0.50;;;17.60;90.40;;;;;;5033588;28;20029;-77
2022/07/02 06:54:10;;;;;;;6.82;1.00;;;17.60;90.20;;;;;;5016920;28;20150;-75
2022/07/02 06:56:36;;;;;;;1.85;0.60;;;17.60;89.60;;;;;;5034573;28;20425;-75
2022/07/02 06:59:05;;;;;;;2.67;0.65;;;17.70;88.80;;;;;;5033637;28;20033;-76
2022/07/02 07:01:31;;;;;;;3.78;0.60;;;17.70;87.40;;;;;;5034470;28;20079;-76
2022/07/02 07:03:56;;;;;;;1.55;0.35;;;17.80;86.70;;;;;;5033248;28;20108;-78
2022/07/02 07:06:23;;;;;;;1.55;0.50;;;17.90;85.50;;;;;;5033323;28;20494;-76
2022/07/02 07:08:53;;;;;;;4.57;0.65;;;17.90;84.40;;;;;;5033111;28;20029;-76
2022/07/02 07:11:22;;;;;;;5.05;0.93;;;17.90;84.00;;;;;;5034377;28;20014;-76
2022/07/02 07:13:48;;;;;;;4.70;0.60;;;18.00;83.40;;;;;;5033128;28;20025;-76
2022/07/02 07:16:14;;;;;;;4.60;0.77;;;18.10;82.70;;;;;;5033371;28;20021;-76
2022/07/02 07:18:40;;;;;;;12.10;1.83;;;18.10;82.60;;;;;;5034176;28;20359;-76
2022/07/02 07:21:06;;;;;;;11.57;2.20;;;18.10;82.70;;;;;;5034118;28;20040;-77
2022/07/02 07:23:32;;;;;;;4.78;0.82;;;18.20;81.70;;;;;;5033765;28;20049;-76
2022/07/02 07:25:58;;;;;;;4.72;0.82;;;18.10;81.70;;;;;;5034035;28;20033;-76
2022/07/02 07:28:26;;;;;;;2.60;0.50;;;18.10;81.40;;;;;;5033893;28;20025;-75
2022/07/02 07:30:53;;;;;;;4.78;0.50;;;18.10;81.20;;;;;;5032691;28;20072;-75
2022/07/02 07:33:19;;;;;;;2.00;0.50;;;18.20;80.90;;;;;;5032853;28;20037;-75
2022/07/02 07:35:44;;;;;;;10.73;1.77;;;18.10;80.60;;;;;;5032537;28;20076;-75
2022/07/02 07:38:10;;;;;;;9.90;1.60;;;18.20;80.60;;;;;;5032638;28;20539;-75
2022/07/02 07:40:36;;;;;;;3.80;0.88;;;18.20;80.40;;;;;;5032732;28;20116;-76
2022/07/02 07:43:03;;;;;;;3.28;0.57;;;18.20;79.40;;;;;;5032552;28;20025;-77
2022/07/02 07:45:29;;;;;;;3.33;0.40;;;18.30;79.00;;;;;;5031503;28;20517;-76
2022/07/02 07:47:55;;;;;;;4.60;0.55;;;18.30;76.80;;;;;;5016167;28;20385;-76
2022/07/02 07:50:20;;;;;;;2.25;0.40;;;18.30;74.50;;;;;;5032416;28;20049;-76
2022/07/02 07:52:46;;;;;;;0.98;0.20;;;18.30;74.20;;;;;;5033555;28;20029;-76
2022/07/02 07:55:12;;;;;;;1.83;0.30;;;18.30;73.70;;;;;;5032265;28;20025;-76
2022/07/02 07:57:37;;;;;;;0.90;0.20;;;18.40;74.00;;;;;;5032279;28;20073;-76
2022/07/02 08:00:05;;;;;;;1.23;0.25;;;18.40;73.90;;;;;;5032103;28;20057;-76
2022/07/02 08:02:30;;;;;;;1.10;0.20;;;18.40;73.90;;;;;;5032029;28;20040;-74
2022/07/02 08:04:56;;;;;;;2.42;0.25;;;18.40;73.10;;;;;;5031924;28;20033;-74
2022/07/02 08:07:22;;;;;;;5.30;0.40;;;18.50;72.40;;;;;;5033257;28;20355;-73
2022/07/02 08:09:52;;;;;;;1.90;0.22;;;18.50;72.40;;;;;;5031978;28;20474;-73
2022/07/02 08:12:20;;;;;;;1.77;0.40;;;18.60;72.80;;;;;;5033257;28;20029;-74
2022/07/02 08:14:45;;;;;;;1.65;0.30;;;18.60;72.00;;;;;;5033124;28;20112;-73
2022/07/02 08:17:11;;;;;;;1.23;0.20;;;18.60;71.20;;;;;;5032880;28;20065;-74
2022/07/02 08:19:36;;;;;;;4.30;0.20;;;18.70;71.10;;;;;;5031575;28;20040;-75
2022/07/02 08:22:02;;;;;;;1.13;0.30;;;18.70;71.10;;;;;;5033144;28;20444;-74
2022/07/02 08:24:29;;;;;;;2.90;0.45;;;18.80;70.60;;;;;;5015240;28;20497;-74
2022/07/02 08:26:55;;;;;;;3.22;0.50;;;18.80;70.40;;;;;;5033126;28;20482;-74
2022/07/02 08:29:20;;;;;;;5.68;0.32;;;18.90;70.30;;;;;;5026687;28;20037;-73
2022/07/02 08:31:46;;;;;;;0.73;0.25;;;19.00;70.50;;;;;;5012304;28;20034;-74
2022/07/02 08:34:11;;;;;;;3.53;0.40;;;19.00;70.30;;;;;;5019427;28;20508;-73
2022/07/02 08:36:37;;;;;;;1.23;0.40;;;19.00;69.80;;;;;;5028348;28;20022;-74
2022/07/02 08:39:03;;;;;;;1.10;0.30;;;19.10;69.90;;;;;;5013248;28;20036;-74
2022/07/02 08:41:29;;;;;;;2.00;0.30;;;19.20;70.00;;;;;;5017510;28;20049;-74
2022/07/02 08:43:56;;;;;;;0.77;0.20;;;19.20;70.20;;;;;;5014351;28;20057;-74
2022/07/02 08:46:24;;;;;;;2.03;0.25;;;19.30;70.10;;;;;;5013317;28;20026;-74
2022/07/02 08:48:50;;;;;;;1.88;0.25;;;19.30;70.10;;;;;;5013247;28;20034;-75
2022/07/02 08:51:22;;;;;;;4.43;0.57;;;19.40;69.80;;;;;;5022512;28;20022;-75
2022/07/02 08:53:48;;;;;;;1.17;0.40;;;19.40;70.00;;;;;;5032730;28;20101;-75
2022/07/02 08:56:14;;;;;;;1.98;0.30;;;19.50;69.90;;;;;;5033888;28;20029;-75
2022/07/02 08:58:40;;;;;;;2.92;0.40;;;19.60;70.20;;;;;;5036980;28;20034;-74
2022/07/02 09:01:08;;;;;;;2.53;0.68;;;19.60;70.10;;;;;;5032376;28;20405;-73
2022/07/02 09:03:34;;;;;;;1.92;0.30;;;19.60;70.10;;;;;;5036658;28;20637;-74
2022/07/02 09:06:01;;;;;;;2.20;0.40;;;19.70;70.20;;;;;;5036667;28;20478;-74
2022/07/02 09:08:29;;;;;;;2.97;0.40;;;19.70;70.20;;;;;;5036354;28;20030;-74
2022/07/02 09:10:56;;;;;;;2.88;0.40;;;19.80;70.40;;;;;;5036725;28;20105;-74
2022/07/02 09:13:24;;;;;;;1.40;0.38;;;19.80;70.40;;;;;;5036579;28;20075;-73
2022/07/02 09:15:51;;;;;;;1.92;0.30;;;19.90;70.10;;;;;;5036472;28;20067;-73
2022/07/02 09:18:17;;;;;;;1.50;0.28;;;19.90;70.00;;;;;;5036361;28;20030;-73
2022/07/02 09:20:43;;;;;;;2.45;0.50;;;20.00;70.00;;;;;;5036497;28;20021;-73
2022/07/02 09:23:20;;;;;;;3.00;0.50;;;20.00;69.90;;;;;;5036161;28;20025;-72
2022/07/02 09:25:46;;;;;;;4.82;0.40;;;20.10;69.80;;;;;;5035052;28;20497;-73
2022/07/02 09:28:14;;;;;;;2.42;0.70;;;20.10;69.80;;;;;;5036415;28;20022;-73
2022/07/02 09:30:39;;;;;;;3.53;0.40;;;20.20;69.70;;;;;;5036357;28;20025;-73
2022/07/02 09:33:35;;;;;;;1.30;0.35;;;20.30;69.70;;;;;;5036369;28;20428;-73
2022/07/02 09:36:12;;;;;;;1.95;0.30;;;20.30;69.40;;;;;;5036135;28;20040;-73
2022/07/02 09:38:41;;;;;;;1.52;0.20;;;20.40;69.10;;;;;;5036128;28;20057;-74
2022/07/02 09:41:11;;;;;;;1.85;0.32;;;20.50;69.00;;;;;;5035036;28;20025;-74
2022/07/02 09:43:38;;;;;;;2.92;0.40;;;20.60;68.60;;;;;;5036063;28;20018;-73
2022/07/02 09:46:15;;;;;;;2.55;0.40;;;20.70;68.50;;;;;;5035970;28;20025;-73
2022/07/02 09:48:41;;;;;;;2.13;0.30;;;20.70;68.10;;;;;;5035786;28;20433;-73
2022/07/02 09:51:07;;;;;;;1.60;0.40;;;20.70;67.80;;;;;;5036002;28;20054;-74
2022/07/02 09:53:32;;;;;;;2.38;0.35;;;20.70;67.40;;;;;;5034409;28;20112;-77
2022/07/02 09:55:59;;;;;;;1.35;0.30;;;20.80;67.10;;;;;;5033546;28;20064;-74
2022/07/02 09:58:26;;;;;;;2.47;0.32;;;20.90;67.30;;;;;;5034532;28;20038;-73
2022/07/02 10:00:53;;;;;;;1.60;0.40;;;21.00;67.90;;;;;;5034087;28;20079;-74
2022/07/02 10:03:19;;;;;;;1.70;0.30;;;21.10;67.10;;;;;;5035347;28;20030;-73
2022/07/02 10:05:48;;;;;;;2.00;0.35;;;21.20;66.90;;;;;;5035728;28;20030;-73
2022/07/02 10:08:14;;;;;;;1.63;0.30;;;21.30;66.50;;;;;;5033963;28;20032;-73
2022/07/02 10:10:40;;;;;;;3.03;0.40;;;21.30;66.00;;;;;;5035432;28;20021;-74
2022/07/02 10:13:07;;;;;;;4.75;0.30;;;21.50;66.00;;;;;;5034128;28;20021;-76
2022/07/02 10:15:36;;;;;;;2.50;0.60;;;21.60;66.20;;;;;;5033986;28;20022;-76
2022/07/02 10:18:03;;;;;;;1.75;0.32;;;21.60;66.10;;;;;;5035537;28;20037;-74
2022/07/02 10:20:30;;;;;;;4.28;0.50;;;21.70;65.90;;;;;;5034188;28;20034;-76
2022/07/02 10:23:02;;;;;;;4.63;0.50;;;21.80;65.30;;;;;;5034089;28;20477;-76
2022/07/02 10:25:29;;;;;;;1.85;0.20;;;21.80;64.90;;;;;;5035359;28;20053;-83
2022/07/02 10:27:57;;;;;;;2.38;0.50;;;21.90;64.80;;;;;;5034009;28;20025;-84
2022/07/02 10:30:31;;;;;;;1.75;0.50;;;21.90;64.50;;;;;;5033939;28;20028;-81
2022/07/02 10:33:18;;;;;;;2.97;0.50;;;22.00;63.80;;;;;;5017884;28;20033;-84
2022/07/02 10:35:46;;;;;;;1.38;0.35;;;22.00;63.20;;;;;;5034002;28;20108;-81
2022/07/02 10:38:11;;;;;;;0.40;0.20;;;22.10;62.80;;;;;;5017616;28;20026;-81
2022/07/02 10:40:50;;;;;;;2.33;0.30;;;22.10;62.70;;;;;;5017376;28;20025;-81
2022/07/02 10:43:17;;;;;;;3.35;0.52;;;22.20;62.50;;;;;;5033834;28;20026;-82
2022/07/02 10:45:48;;;;;;;2.42;0.35;;;22.20;62.50;;;;;;5017119;28;20032;-83
2022/07/02 10:48:14;;;;;;;1.20;0.30;;;22.40;62.50;;;;;;5017545;28;20034;-82
2022/07/02 10:50:45;;;;;;;1.58;0.30;;;22.70;61.60;;;;;;5033485;28;20033;-79
2022/07/02 10:53:17;;;;;;;1.98;0.40;;;22.90;60.90;;;;;;5035053;28;20026;-79
2022/07/02 10:56:03;;;;;;;3.28;0.40;;;23.00;60.30;;;;;;5034763;28;20041;-79
2022/07/02 10:58:31;;;;;;;2.03;0.30;;;23.10;59.80;;;;;;5016733;28;20042;-80
2022/07/02 11:01:08;;;;;;;2.88;0.52;;;23.10;60.00;;;;;;5034740;28;20381;-79
2022/07/02 11:03:34;;;;;;;1.73;0.30;;;23.20;60.10;;;;;;5033319;28;20473;-80
2022/07/02 11:06:02;;;;;;;2.25;0.25;;;23.40;60.20;;;;;;5033381;28;20442;-81
2022/07/02 11:08:48;;;;;;;2.05;0.45;;;23.60;60.00;;;;;;5033169;28;20422;-81
2022/07/02 11:11:35;;;;;;;1.20;0.30;;;23.80;59.20;;;;;;5033536;28;20381;-80
2022/07/02 11:14:03;;;;;;;1.55;0.30;;;23.90;58.70;;;;;;5033025;28;20470;-79
2022/07/02 11:16:39;;;;;;;1.02;0.22;;;24.10;58.20;;;;;;5016798;28;20444;-79
2022/07/02 11:19:20;;;;;;;7.32;0.40;;;24.10;57.80;;;;;;5033043;28;20045;-80
2022/07/02 11:21:50;;;;;;;1.85;0.25;;;24.30;57.80;;;;;;5032887;28;20025;-79
2022/07/02 11:24:24;;;;;;;2.17;0.30;;;24.40;57.40;;;;;;5032665;28;20057;-80
2022/07/02 11:26:50;;;;;;;1.48;0.25;;;24.70;56.80;;;;;;5032654;28;20040;-79
2022/07/02 11:29:16;;;;;;;0.77;0.20;;;25.00;56.40;;;;;;5034134;28;20527;-80
2022/07/02 11:31:48;;;;;;;1.80;0.28;;;25.20;55.70;;;;;;5032679;28;20021;-80
2022/07/02 11:34:23;;;;;;;2.35;0.30;;;25.50;55.30;;;;;;5032654;28;20021;-80
2022/07/02 11:36:49;;;;;;;0.80;0.10;;;25.70;54.60;;;;;;5032930;28;20034;-79
2022/07/02 11:39:17;;;;;;;2.67;0.20;;;25.70;54.40;;;;;;5032679;28;20088;-79
2022/07/02 11:41:44;;;;;;;0.98;0.28;;;25.80;53.80;;;;;;5033884;28;20029;-78
2022/07/02 11:44:15;;;;;;;2.47;0.30;;;25.80;53.40;;;;;;5032528;28;20017;-80
2022/07/02 11:46:42;;;;;;;2.92;0.32;;;25.80;52.70;;;;;;5032730;28;20116;-80
2022/07/02 11:49:18;;;;;;;1.90;0.40;;;25.90;52.80;;;;;;5015980;28;20073;-79
2022/07/02 11:51:45;;;;;;;1.10;0.30;;;26.00;52.60;;;;;;5033596;28;20014;-79
2022/07/02 11:54:13;;;;;;;2.45;0.25;;;26.10;52.60;;;;;;5032350;28;20029;-83
2022/07/02 11:56:39;;;;;;;3.22;0.38;;;26.10;52.50;;;;;;5032339;28;20086;-82
2022/07/02 11:59:11;;;;;;;1.92;0.30;;;26.10;52.40;;;;;;5033633;28;20083;-83
2022/07/02 12:01:38;;;;;;;2.22;0.30;;;26.10;52.20;;;;;;5032150;28;20025;-82
2022/07/02 12:04:06;;;;;;;0.57;0.15;;;26.20;52.50;;;;;;5033477;28;20382;-83
2022/07/02 12:06:44;;;;;;;3.65;0.30;;;26.20;52.40;;;;;;5032211;28;20489;-83
2022/07/02 12:09:24;;;;;;;3.75;0.30;;;26.30;51.90;;;;;;5032209;28;20382;-82
2022/07/02 12:11:54;;;;;;;1.75;0.28;;;26.30;51.00;;;;;;5033402;28;20017;-82
2022/07/02 12:14:28;;;;;;;2.13;0.20;;;26.40;51.20;;;;;;5032077;28;20032;-82
2022/07/02 12:16:54;;;;;;;2.80;0.40;;;26.60;51.00;;;;;;5032163;28;20040;-84
2022/07/02 12:19:27;;;;;;;1.70;0.35;;;26.60;50.40;;;;;;5032001;28;20053;-82
2022/07/02 12:21:52;;;;;;;1.77;0.40;;;26.60;50.30;;;;;;5031969;28;20470;-84
2022/07/02 12:24:28;;;;;;;2.15;0.50;;;26.60;50.50;;;;;;5033004;28;20050;-82
2022/07/02 12:26:53;;;;;;;2.45;0.25;;;26.70;50.50;;;;;;5031885;28;20546;-82
2022/07/02 12:32:17;;;;;;;1.80;0.20;;;27.10;50.00;;;;;;5019149;28;20128;-83
2022/07/02 12:34:48;;;;;;;1.75;0.30;;;27.30;49.40;;;;;;5031772;28;20021;-84
2022/07/02 12:37:52;;;;;;;2.70;0.32;;;27.60;49.40;;;;;;5031831;28;20477;-82
2022/07/02 12:40:21;;;;;;;0.70;0.20;;;27.80;49.10;;;;;;5031959;28;20084;-84
2022/07/02 12:42:59;;;;;;;0.60;0.20;;;28.00;48.90;;;;;;5015321;28;20498;-83
2022/07/02 12:45:28;;;;;;;0.82;0.20;;;28.10;48.30;;;;;;5032833;28;20076;-83
2022/07/02 12:48:15;;;;;;;1.55;0.30;;;28.10;48.30;;;;;;5031807;28;20025;-84
2022/07/02 12:50:46;;;;;;;0.93;0.10;;;28.20;47.80;;;;;;5031900;28;20037;-83
2022/07/02 12:53:20;;;;;;;1.55;0.30;;;28.50;47.90;;;;;;5032851;28;20021;-83